Airfield :







YOU CAN JOIN US ON...

 
LOGIN :

Register | Disclaimer

   EN    FR    IT 

 









Legend :    VFR   Marginal VFR   IFR   Intensive IFR   Very Intensive IFR
Visi :
Ceiling :
>= 8 km
>= 3000ft
5 to 8 km
1000 to 3000 ft
1500m to 5 km
500 to 1000 ft
800 to 1500m
200 to 500 ft
< 800m
< 200 ft
Symbols :   Thunderstorms  Fog  Heavy snow  Heavy precipitations  Wind > 20 kt







- Airport Elevation : 732 ft


KMVL - Morrisville Stowe State

CURRENT METAR :
  • 171954Z AUTO 33008KT 10SM SCT039 BKN046 OVC060 17/09 A3018 RMK AO2 SLP225 T01670089

EXPIRED METARs :
  • 171854Z AUTO 35006KT 10SM SCT048 OVC060 17/08 A3019 RMK AO2 SLP228 T01670083
  • 171754Z AUTO 34008KT 10SM FEW039 OVC050 16/08 A3019 RMK AO2 SLP228 T01610083 10183 20050 56006

TAF N/A
No reported NOTAMs for that airfield.



MET'MAP, your aeronautical weather chart ! - Copyright ORBIFLY December 2007 - Disclaimer

ORBIFLY MET'MAP TEAM :

Programming & Development : Alexandra Zaïnal
Concept & Development : Baudouin d'Aumeries
Co-Development & Prog : Marc-Olivier Méhu
Technical & hardware support : Manuel Goepfert

Contact : metmap@orbifly.com




SOURCES & CREDITS :

   NOAA